Terminal Aerodrome Forecast
Issued by NWS Northern Indiana

Home | Current Version | Previous Version | Graphics & Text | Print | Product List | Glossary On
Versions: 1 2 3 4 5 6 7 8 9 10 11 12
000
FTUS43 KIWX 181700
TAFFWA
TAF
KFWA 181720Z 1818/1918 26010KT P6SM SCT050
     FM182000 31010KT P6SM SCT050
     FM190100 35007KT P6SM SKC
     FM190700 05006KT P6SM SKC
     FM191300 08011KT P6SM SKC=

USA.gov is the U.S. government's official web portal to all federal, state and local government web resources and services.